sensor_id;sensor_type;location;lat;lon;timestamp;temperature;humidity
10278;DHT22;5184;51.376;7.148;2023-05-13T00:01:57;10.30;99.90
10278;DHT22;5184;51.376;7.148;2023-05-13T00:04:25;10.30;99.90
10278;DHT22;5184;51.376;7.148;2023-05-13T00:06:51;10.30;99.90
10278;DHT22;5184;51.376;7.148;2023-05-13T00:09:18;10.20;99.90
10278;DHT22;5184;51.376;7.148;2023-05-13T00:11:45;10.20;99.90
10278;DHT22;5184;51.376;7.148;2023-05-13T00:14:12;10.20;99.90
10278;DHT22;5184;51.376;7.148;2023-05-13T00:16:39;10.10;99.90
10278;DHT22;5184;51.376;7.148;2023-05-13T00:19:06;10.10;99.90
10278;DHT22;5184;51.376;7.148;2023-05-13T00:21:32;10.10;99.90
10278;DHT22;5184;51.376;7.148;2023-05-13T00:23:59;10.10;99.90
10278;DHT22;5184;51.376;7.148;2023-05-13T00:26:26;10.00;99.90
10278;DHT22;5184;51.376;7.148;2023-05-13T00:28:53;10.00;99.90
10278;DHT22;5184;51.376;7.148;2023-05-13T00:31:20;10.00;99.90
10278;DHT22;5184;51.376;7.148;2023-05-13T00:33:46;10.00;99.90
10278;DHT22;5184;51.376;7.148;2023-05-13T00:36:13;9.90;99.90
10278;DHT22;5184;51.376;7.148;2023-05-13T00:38:39;9.90;99.90
10278;DHT22;5184;51.376;7.148;2023-05-13T00:41:07;9.90;99.90
10278;DHT22;5184;51.376;7.148;2023-05-13T00:43:34;9.80;99.90
10278;DHT22;5184;51.376;7.148;2023-05-13T00:46:01;9.80;99.90
10278;DHT22;5184;51.376;7.148;2023-05-13T00:48:28;9.80;99.90
10278;DHT22;5184;51.376;7.148;2023-05-13T00:50:55;9.80;99.90
10278;DHT22;5184;51.376;7.148;2023-05-13T00:53:21;9.80;99.90
10278;DHT22;5184;51.376;7.148;2023-05-13T00:55:48;9.80;99.90
10278;DHT22;5184;51.376;7.148;2023-05-13T00:58:14;9.80;99.90
10278;DHT22;5184;51.376;7.148;2023-05-13T01:00:49;9.80;99.90
10278;DHT22;5184;51.376;7.148;2023-05-13T01:03:16;9.80;99.90
10278;DHT22;5184;51.376;7.148;2023-05-13T01:06:15;9.80;99.90
10278;DHT22;5184;51.376;7.148;2023-05-13T01:08:34;9.80;99.90
10278;DHT22;5184;51.376;7.148;2023-05-13T01:11:00;9.80;99.90
10278;DHT22;5184;51.376;7.148;2023-05-13T01:13:27;9.80;99.90
10278;DHT22;5184;51.376;7.148;2023-05-13T01:16:12;9.80;99.90
10278;DHT22;5184;51.376;7.148;2023-05-13T01:18:36;9.80;99.90
10278;DHT22;5184;51.376;7.148;2023-05-13T01:21:04;9.70;99.90
10278;DHT22;5184;51.376;7.148;2023-05-13T01:23:30;9.70;99.90
10278;DHT22;5184;51.376;7.148;2023-05-13T01:25:58;9.70;99.90
10278;DHT22;5184;51.376;7.148;2023-05-13T01:28:24;9.70;99.90
10278;DHT22;5184;51.376;7.148;2023-05-13T01:30:51;9.70;99.90
10278;DHT22;5184;51.376;7.148;2023-05-13T01:33:18;9.70;99.90
10278;DHT22;5184;51.376;7.148;2023-05-13T01:35:44;9.70;99.90
10278;DHT22;5184;51.376;7.148;2023-05-13T01:38:12;9.70;99.90
10278;DHT22;5184;51.376;7.148;2023-05-13T01:40:38;9.70;99.90
10278;DHT22;5184;51.376;7.148;2023-05-13T01:43:05;9.70;99.90
10278;DHT22;5184;51.376;7.148;2023-05-13T01:45:31;9.70;99.90
10278;DHT22;5184;51.376;7.148;2023-05-13T01:47:59;9.60;99.90
10278;DHT22;5184;51.376;7.148;2023-05-13T01:50:25;9.60;99.90
10278;DHT22;5184;51.376;7.148;2023-05-13T01:52:52;9.60;99.90
10278;DHT22;5184;51.376;7.148;2023-05-13T01:55:19;9.60;99.90
10278;DHT22;5184;51.376;7.148;2023-05-13T01:57:45;9.50;99.90
10278;DHT22;5184;51.376;7.148;2023-05-13T02:00:13;9.50;99.90
10278;DHT22;5184;51.376;7.148;2023-05-13T02:02:40;9.50;99.90
10278;DHT22;5184;51.376;7.148;2023-05-13T02:05:07;9.50;99.90
10278;DHT22;5184;51.376;7.148;2023-05-13T02:07:33;9.40;99.90
10278;DHT22;5184;51.376;7.148;2023-05-13T02:10:00;9.40;99.90
10278;DHT22;5184;51.376;7.148;2023-05-13T02:12:27;9.40;99.90
10278;DHT22;5184;51.376;7.148;2023-05-13T02:14:53;9.40;99.90
10278;DHT22;5184;51.376;7.148;2023-05-13T02:17:21;9.30;99.90
10278;DHT22;5184;51.376;7.148;2023-05-13T02:19:48;9.30;99.90
10278;DHT22;5184;51.376;7.148;2023-05-13T02:22:14;9.30;99.90
10278;DHT22;5184;51.376;7.148;2023-05-13T02:24:41;9.30;99.90
10278;DHT22;5184;51.376;7.148;2023-05-13T02:27:08;9.30;99.90
10278;DHT22;5184;51.376;7.148;2023-05-13T02:29:34;9.30;99.90
10278;DHT22;5184;51.376;7.148;2023-05-13T02:32:01;9.30;99.90
10278;DHT22;5184;51.376;7.148;2023-05-13T02:34:28;9.30;99.90
10278;DHT22;5184;51.376;7.148;2023-05-13T02:36:55;9.20;99.90
10278;DHT22;5184;51.376;7.148;2023-05-13T02:39:21;9.20;99.90
10278;DHT22;5184;51.376;7.148;2023-05-13T02:41:48;9.20;99.90
10278;DHT22;5184;51.376;7.148;2023-05-13T02:44:15;9.20;99.90
10278;DHT22;5184;51.376;7.148;2023-05-13T02:46:41;9.10;99.90
10278;DHT22;5184;51.376;7.148;2023-05-13T02:49:09;9.10;99.90
10278;DHT22;5184;51.376;7.148;2023-05-13T02:51:35;9.10;99.90
10278;DHT22;5184;51.376;7.148;2023-05-13T02:54:02;9.10;99.90
10278;DHT22;5184;51.376;7.148;2023-05-13T02:56:28;9.00;99.90
10278;DHT22;5184;51.376;7.148;2023-05-13T02:58:55;9.00;99.90
10278;DHT22;5184;51.376;7.148;2023-05-13T03:01:21;9.00;99.90
10278;DHT22;5184;51.376;7.148;2023-05-13T03:03:49;9.00;99.90
10278;DHT22;5184;51.376;7.148;2023-05-13T03:06:16;9.00;99.90
10278;DHT22;5184;51.376;7.148;2023-05-13T03:08:43;8.90;99.90
10278;DHT22;5184;51.376;7.148;2023-05-13T03:11:09;8.90;99.90
10278;DHT22;5184;51.376;7.148;2023-05-13T03:13:36;8.90;99.90
10278;DHT22;5184;51.376;7.148;2023-05-13T03:16:04;8.90;99.90
10278;DHT22;5184;51.376;7.148;2023-05-13T03:18:31;8.90;99.90
10278;DHT22;5184;51.376;7.148;2023-05-13T03:20:58;8.90;99.90
10278;DHT22;5184;51.376;7.148;2023-05-13T03:23:24;8.80;99.90
10278;DHT22;5184;51.376;7.148;2023-05-13T03:25:51;8.80;99.90
10278;DHT22;5184;51.376;7.148;2023-05-13T03:28:18;8.80;99.90
10278;DHT22;5184;51.376;7.148;2023-05-13T03:30:44;8.80;99.90
10278;DHT22;5184;51.376;7.148;2023-05-13T03:33:12;8.70;99.90
10278;DHT22;5184;51.376;7.148;2023-05-13T03:35:38;8.30;99.90
10278;DHT22;5184;51.376;7.148;2023-05-13T03:38:05;8.60;99.90
10278;DHT22;5184;51.376;7.148;2023-05-13T03:40:31;8.60;99.90
10278;DHT22;5184;51.376;7.148;2023-05-13T03:42:58;8.60;99.90
10278;DHT22;5184;51.376;7.148;2023-05-13T03:45:25;8.60;99.90
10278;DHT22;5184;51.376;7.148;2023-05-13T03:47:52;8.60;99.90
10278;DHT22;5184;51.376;7.148;2023-05-13T03:50:18;8.60;99.90
10278;DHT22;5184;51.376;7.148;2023-05-13T03:52:45;8.60;99.90
10278;DHT22;5184;51.376;7.148;2023-05-13T03:55:12;8.60;99.90
10278;DHT22;5184;51.376;7.148;2023-05-13T03:57:38;8.50;99.90
10278;DHT22;5184;51.376;7.148;2023-05-13T04:00:06;8.60;99.90
10278;DHT22;5184;51.376;7.148;2023-05-13T04:02:32;8.60;99.90
10278;DHT22;5184;51.376;7.148;2023-05-13T04:04:59;8.60;99.90
10278;DHT22;5184;51.376;7.148;2023-05-13T04:07:26;8.60;99.90
10278;DHT22;5184;51.376;7.148;2023-05-13T04:09:54;8.60;99.90
10278;DHT22;5184;51.376;7.148;2023-05-13T04:12:21;8.60;99.90
10278;DHT22;5184;51.376;7.148;2023-05-13T04:14:48;8.50;99.90
10278;DHT22;5184;51.376;7.148;2023-05-13T04:17:14;8.60;99.90
10278;DHT22;5184;51.376;7.148;2023-05-13T04:19:41;8.60;99.90
10278;DHT22;5184;51.376;7.148;2023-05-13T04:22:07;8.60;99.90
10278;DHT22;5184;51.376;7.148;2023-05-13T04:24:34;8.70;99.90
10278;DHT22;5184;51.376;7.148;2023-05-13T04:27:02;8.70;99.90
10278;DHT22;5184;51.376;7.148;2023-05-13T04:29:28;8.70;99.90
10278;DHT22;5184;51.376;7.148;2023-05-13T04:31:55;8.70;99.90
10278;DHT22;5184;51.376;7.148;2023-05-13T04:34:21;8.70;99.90
10278;DHT22;5184;51.376;7.148;2023-05-13T04:36:48;8.70;99.90
10278;DHT22;5184;51.376;7.148;2023-05-13T04:39:14;8.70;99.90
10278;DHT22;5184;51.376;7.148;2023-05-13T04:41:42;8.70;99.90
10278;DHT22;5184;51.376;7.148;2023-05-13T04:44:08;8.70;99.90
10278;DHT22;5184;51.376;7.148;2023-05-13T04:46:35;8.80;99.90
10278;DHT22;5184;51.376;7.148;2023-05-13T04:49:02;8.70;99.90
10278;DHT22;5184;51.376;7.148;2023-05-13T04:51:28;8.80;99.90
10278;DHT22;5184;51.376;7.148;2023-05-13T04:53:55;8.80;99.90
10278;DHT22;5184;51.376;7.148;2023-05-13T04:56:22;8.90;99.90
10278;DHT22;5184;51.376;7.148;2023-05-13T04:58:49;8.80;99.90
10278;DHT22;5184;51.376;7.148;2023-05-13T05:01:15;8.90;99.90
10278;DHT22;5184;51.376;7.148;2023-05-13T05:03:42;8.90;99.90
10278;DHT22;5184;51.376;7.148;2023-05-13T05:06:09;9.10;99.90
10278;DHT22;5184;51.376;7.148;2023-05-13T05:08:37;9.10;99.90
10278;DHT22;5184;51.376;7.148;2023-05-13T05:11:04;9.10;99.90
10278;DHT22;5184;51.376;7.148;2023-05-13T05:13:31;9.10;99.90
10278;DHT22;5184;51.376;7.148;2023-05-13T05:15:57;9.20;99.90
10278;DHT22;5184;51.376;7.148;2023-05-13T05:18:24;9.20;99.90
10278;DHT22;5184;51.376;7.148;2023-05-13T05:20:50;9.30;99.90
10278;DHT22;5184;51.376;7.148;2023-05-13T05:23:17;9.30;99.90
10278;DHT22;5184;51.376;7.148;2023-05-13T05:25:44;9.40;99.90
10278;DHT22;5184;51.376;7.148;2023-05-13T05:28:11;9.40;99.90
10278;DHT22;5184;51.376;7.148;2023-05-13T05:30:38;9.40;99.90
10278;DHT22;5184;51.376;7.148;2023-05-13T05:33:05;9.40;99.90
10278;DHT22;5184;51.376;7.148;2023-05-13T05:35:31;9.50;99.90
10278;DHT22;5184;51.376;7.148;2023-05-13T05:37:58;9.60;99.90
10278;DHT22;5184;51.376;7.148;2023-05-13T05:40:25;9.80;99.90
10278;DHT22;5184;51.376;7.148;2023-05-13T05:42:52;9.70;99.90
10278;DHT22;5184;51.376;7.148;2023-05-13T05:45:19;9.90;99.90
10278;DHT22;5184;51.376;7.148;2023-05-13T05:47:45;10.00;99.90
10278;DHT22;5184;51.376;7.148;2023-05-13T05:50:12;10.10;99.90
10278;DHT22;5184;51.376;7.148;2023-05-13T05:52:38;10.20;99.90
10278;DHT22;5184;51.376;7.148;2023-05-13T05:55:06;10.30;99.90
10278;DHT22;5184;51.376;7.148;2023-05-13T05:57:33;10.50;99.90
10278;DHT22;5184;51.376;7.148;2023-05-13T06:00:00;10.60;99.90
10278;DHT22;5184;51.376;7.148;2023-05-13T06:02:27;10.50;99.90
10278;DHT22;5184;51.376;7.148;2023-05-13T06:04:54;10.70;99.90
10278;DHT22;5184;51.376;7.148;2023-05-13T06:07:20;10.70;99.90
10278;DHT22;5184;51.376;7.148;2023-05-13T06:09:48;11.00;99.90
10278;DHT22;5184;51.376;7.148;2023-05-13T06:12:15;11.10;99.90
10278;DHT22;5184;51.376;7.148;2023-05-13T06:14:41;11.00;99.90
10278;DHT22;5184;51.376;7.148;2023-05-13T06:17:08;11.10;99.90
10278;DHT22;5184;51.376;7.148;2023-05-13T06:19:35;11.20;99.90
10278;DHT22;5184;51.376;7.148;2023-05-13T06:22:02;11.40;99.90
10278;DHT22;5184;51.376;7.148;2023-05-13T06:24:29;11.40;99.90
10278;DHT22;5184;51.376;7.148;2023-05-13T06:26:55;11.40;99.90
10278;DHT22;5184;51.376;7.148;2023-05-13T06:29:22;11.50;99.90
10278;DHT22;5184;51.376;7.148;2023-05-13T06:31:48;11.60;99.90
10278;DHT22;5184;51.376;7.148;2023-05-13T06:34:16;11.60;99.90
10278;DHT22;5184;51.376;7.148;2023-05-13T06:36:43;11.70;99.90
10278;DHT22;5184;51.376;7.148;2023-05-13T06:39:11;11.70;99.90
10278;DHT22;5184;51.376;7.148;2023-05-13T06:41:38;11.70;99.90
10278;DHT22;5184;51.376;7.148;2023-05-13T06:44:04;11.80;99.90
10278;DHT22;5184;51.376;7.148;2023-05-13T06:46:30;11.80;99.90
10278;DHT22;5184;51.376;7.148;2023-05-13T06:48:57;11.80;99.90
10278;DHT22;5184;51.376;7.148;2023-05-13T06:51:24;11.80;99.90
10278;DHT22;5184;51.376;7.148;2023-05-13T06:53:50;11.90;99.90
10278;DHT22;5184;51.376;7.148;2023-05-13T06:56:17;12.00;99.90
10278;DHT22;5184;51.376;7.148;2023-05-13T06:58:44;12.10;99.90
10278;DHT22;5184;51.376;7.148;2023-05-13T07:01:12;12.20;99.90
10278;DHT22;5184;51.376;7.148;2023-05-13T07:03:38;12.20;99.90
10278;DHT22;5184;51.376;7.148;2023-05-13T07:06:05;12.20;99.90
10278;DHT22;5184;51.376;7.148;2023-05-13T07:08:31;12.20;99.90
10278;DHT22;5184;51.376;7.148;2023-05-13T07:10:58;12.20;99.90
10278;DHT22;5184;51.376;7.148;2023-05-13T07:13:25;12.20;75.50
10278;DHT22;5184;51.376;7.148;2023-05-13T07:15:53;12.30;76.00
10278;DHT22;5184;51.376;7.148;2023-05-13T07:18:19;12.30;72.60
10278;DHT22;5184;51.376;7.148;2023-05-13T07:20:46;12.30;1.00
10278;DHT22;5184;51.376;7.148;2023-05-13T07:23:12;12.50;1.00
10278;DHT22;5184;51.376;7.148;2023-05-13T07:25:39;12.60;1.00
10278;DHT22;5184;51.376;7.148;2023-05-13T07:28:06;12.80;1.00
10278;DHT22;5184;51.376;7.148;2023-05-13T07:30:33;13.20;99.90
10278;DHT22;5184;51.376;7.148;2023-05-13T07:33:00;13.20;99.90
10278;DHT22;5184;51.376;7.148;2023-05-13T07:35:26;13.30;99.90
10278;DHT22;5184;51.376;7.148;2023-05-13T07:37:53;13.50;99.90
10278;DHT22;5184;51.376;7.148;2023-05-13T07:40:20;13.70;1.00
10278;DHT22;5184;51.376;7.148;2023-05-13T07:42:48;13.90;1.00
10278;DHT22;5184;51.376;7.148;2023-05-13T07:45:14;13.90;1.00
10278;DHT22;5184;51.376;7.148;2023-05-13T07:47:41;14.10;1.00
10278;DHT22;5184;51.376;7.148;2023-05-13T07:50:07;14.30;99.90
10278;DHT22;5184;51.376;7.148;2023-05-13T07:52:34;14.60;99.90
10278;DHT22;5184;51.376;7.148;2023-05-13T07:55:01;14.80;99.90
10278;DHT22;5184;51.376;7.148;2023-05-13T07:57:27;14.90;99.90
10278;DHT22;5184;51.376;7.148;2023-05-13T07:59:54;14.90;99.90
10278;DHT22;5184;51.376;7.148;2023-05-13T08:02:20;14.80;99.90
10278;DHT22;5184;51.376;7.148;2023-05-13T08:04:48;14.80;99.90
10278;DHT22;5184;51.376;7.148;2023-05-13T08:07:15;14.90;99.90
10278;DHT22;5184;51.376;7.148;2023-05-13T08:09:42;14.90;99.90
10278;DHT22;5184;51.376;7.148;2023-05-13T08:12:08;14.90;99.90
10278;DHT22;5184;51.376;7.148;2023-05-13T08:14:35;15.00;1.00
10278;DHT22;5184;51.376;7.148;2023-05-13T08:17:03;15.10;99.90
10278;DHT22;5184;51.376;7.148;2023-05-13T08:19:29;15.10;99.90
10278;DHT22;5184;51.376;7.148;2023-05-13T08:21:56;15.20;1.00
10278;DHT22;5184;51.376;7.148;2023-05-13T08:24:22;15.30;1.00
10278;DHT22;5184;51.376;7.148;2023-05-13T08:26:49;15.40;99.90
10278;DHT22;5184;51.376;7.148;2023-05-13T08:29:16;15.60;99.90
10278;DHT22;5184;51.376;7.148;2023-05-13T08:31:43;15.70;1.00
10278;DHT22;5184;51.376;7.148;2023-05-13T08:34:10;15.70;1.00
10278;DHT22;5184;51.376;7.148;2023-05-13T08:36:37;15.80;99.90
10278;DHT22;5184;51.376;7.148;2023-05-13T08:39:03;15.90;1.00
10278;DHT22;5184;51.376;7.148;2023-05-13T08:41:31;16.20;99.90
10278;DHT22;5184;51.376;7.148;2023-05-13T08:43:58;16.30;99.90
10278;DHT22;5184;51.376;7.148;2023-05-13T08:46:26;16.30;99.90
10278;DHT22;5184;51.376;7.148;2023-05-13T08:48:52;16.40;1.00
10278;DHT22;5184;51.376;7.148;2023-05-13T08:51:18;16.50;7.40
10278;DHT22;5184;51.376;7.148;2023-05-13T08:53:44;16.60;1.00
10278;DHT22;5184;51.376;7.148;2023-05-13T08:56:11;16.70;1.00
10278;DHT22;5184;51.376;7.148;2023-05-13T08:58:38;16.80;99.90
10278;DHT22;5184;51.376;7.148;2023-05-13T09:01:06;16.90;1.00
10278;DHT22;5184;51.376;7.148;2023-05-13T09:03:33;17.00;63.30
10278;DHT22;5184;51.376;7.148;2023-05-13T09:06:00;17.00;51.90
10278;DHT22;5184;51.376;7.148;2023-05-13T09:08:26;17.10;99.90
10278;DHT22;5184;51.376;7.148;2023-05-13T09:10:53;17.30;99.90
10278;DHT22;5184;51.376;7.148;2023-05-13T09:13:20;17.30;99.90
10278;DHT22;5184;51.376;7.148;2023-05-13T09:15:46;17.40;99.90
10278;DHT22;5184;51.376;7.148;2023-05-13T09:18:13;17.60;1.70
10278;DHT22;5184;51.376;7.148;2023-05-13T09:20:41;17.70;1.00
10278;DHT22;5184;51.376;7.148;2023-05-13T09:23:09;17.70;1.00
10278;DHT22;5184;51.376;7.148;2023-05-13T09:25:36;17.90;1.00
10278;DHT22;5184;51.376;7.148;2023-05-13T09:28:04;18.00;99.90
10278;DHT22;5184;51.376;7.148;2023-05-13T09:30:32;18.10;99.90
10278;DHT22;5184;51.376;7.148;2023-05-13T09:33:05;18.10;1.00
10278;DHT22;5184;51.376;7.148;2023-05-13T09:35:31;18.30;1.00
10278;DHT22;5184;51.376;7.148;2023-05-13T09:37:58;18.40;99.90
10278;DHT22;5184;51.376;7.148;2023-05-13T09:40:25;18.30;96.50
10278;DHT22;5184;51.376;7.148;2023-05-13T09:42:55;18.50;1.00
10278;DHT22;5184;51.376;7.148;2023-05-13T09:45:18;18.60;1.00
10278;DHT22;5184;51.376;7.148;2023-05-13T09:47:49;18.70;99.90
10278;DHT22;5184;51.376;7.148;2023-05-13T09:50:11;18.80;99.90
10278;DHT22;5184;51.376;7.148;2023-05-13T09:52:39;18.90;99.90
10278;DHT22;5184;51.376;7.148;2023-05-13T09:55:08;19.00;99.90
10278;DHT22;5184;51.376;7.148;2023-05-13T09:57:35;19.00;99.40
10278;DHT22;5184;51.376;7.148;2023-05-13T10:00:02;19.10;1.00
10278;DHT22;5184;51.376;7.148;2023-05-13T10:02:28;19.10;1.00
10278;DHT22;5184;51.376;7.148;2023-05-13T10:04:55;19.20;1.00
10278;DHT22;5184;51.376;7.148;2023-05-13T10:07:22;19.30;1.00
10278;DHT22;5184;51.376;7.148;2023-05-13T10:09:51;19.30;1.00
10278;DHT22;5184;51.376;7.148;2023-05-13T10:12:18;19.40;99.90
10278;DHT22;5184;51.376;7.148;2023-05-13T10:14:44;19.40;99.90
10278;DHT22;5184;51.376;7.148;2023-05-13T10:17:11;19.50;1.00
10278;DHT22;5184;51.376;7.148;2023-05-13T10:19:39;19.60;1.00
10278;DHT22;5184;51.376;7.148;2023-05-13T10:22:05;19.60;1.00
10278;DHT22;5184;51.376;7.148;2023-05-13T10:24:32;19.70;1.00
10278;DHT22;5184;51.376;7.148;2023-05-13T10:26:58;19.70;99.90
10278;DHT22;5184;51.376;7.148;2023-05-13T10:29:26;19.80;99.90
10278;DHT22;5184;51.376;7.148;2023-05-13T10:31:53;19.70;99.90
10278;DHT22;5184;51.376;7.148;2023-05-13T10:34:19;19.80;99.90
10278;DHT22;5184;51.376;7.148;2023-05-13T10:36:52;19.90;99.90
10278;DHT22;5184;51.376;7.148;2023-05-13T10:39:22;20.00;99.90
10278;DHT22;5184;51.376;7.148;2023-05-13T10:44:22;20.00;99.90
10278;DHT22;5184;51.376;7.148;2023-05-13T10:46:49;20.10;99.90
10278;DHT22;5184;51.376;7.148;2023-05-13T10:49:16;20.10;99.90
10278;DHT22;5184;51.376;7.148;2023-05-13T10:51:44;20.20;99.90
10278;DHT22;5184;51.376;7.148;2023-05-13T10:54:17;20.30;99.90
10278;DHT22;5184;51.376;7.148;2023-05-13T10:56:36;20.40;99.90
10278;DHT22;5184;51.376;7.148;2023-05-13T10:59:03;20.50;97.30
10278;DHT22;5184;51.376;7.148;2023-05-13T11:01:34;20.50;99.90
10278;DHT22;5184;51.376;7.148;2023-05-13T11:04:01;20.50;99.90
10278;DHT22;5184;51.376;7.148;2023-05-13T11:06:29;20.60;99.90
10278;DHT22;5184;51.376;7.148;2023-05-13T11:08:55;20.60;99.90
10278;DHT22;5184;51.376;7.148;2023-05-13T11:11:28;20.60;99.90
10278;DHT22;5184;51.376;7.148;2023-05-13T11:13:53;20.60;99.90
10278;DHT22;5184;51.376;7.148;2023-05-13T11:16:19;20.70;40.20
10278;DHT22;5184;51.376;7.148;2023-05-13T11:18:45;20.80;34.80
10278;DHT22;5184;51.376;7.148;2023-05-13T11:21:12;20.80;1.00
10278;DHT22;5184;51.376;7.148;2023-05-13T11:23:49;20.80;84.30
10278;DHT22;5184;51.376;7.148;2023-05-13T11:26:15;20.80;8.50
10278;DHT22;5184;51.376;7.148;2023-05-13T11:28:52;20.90;1.00
10278;DHT22;5184;51.376;7.148;2023-05-13T11:31:18;20.80;1.00
10278;DHT22;5184;51.376;7.148;2023-05-13T11:36:28;21.00;58.00
10278;DHT22;5184;51.376;7.148;2023-05-13T11:38:51;21.10;20.90
10278;DHT22;5184;51.376;7.148;2023-05-13T11:41:18;21.10;18.90
10278;DHT22;5184;51.376;7.148;2023-05-13T11:43:45;21.10;1.00
10278;DHT22;5184;51.376;7.148;2023-05-13T11:46:18;21.00;1.00
10278;DHT22;5184;51.376;7.148;2023-05-13T11:48:38;21.00;1.00
10278;DHT22;5184;51.376;7.148;2023-05-13T11:51:04;21.00;1.00
10278;DHT22;5184;51.376;7.148;2023-05-13T11:53:31;21.10;1.00
10278;DHT22;5184;51.376;7.148;2023-05-13T11:56:07;21.10;1.00
10278;DHT22;5184;51.376;7.148;2023-05-13T11:58:25;21.20;1.00
10278;DHT22;5184;51.376;7.148;2023-05-13T12:00:53;21.30;1.00
10278;DHT22;5184;51.376;7.148;2023-05-13T12:03:19;21.30;1.00
10278;DHT22;5184;51.376;7.148;2023-05-13T12:05:46;21.50;1.00
10278;DHT22;5184;51.376;7.148;2023-05-13T12:08:14;21.60;1.00
10278;DHT22;5184;51.376;7.148;2023-05-13T12:10:42;21.70;1.00
10278;DHT22;5184;51.376;7.148;2023-05-13T12:13:08;21.70;1.00
10278;DHT22;5184;51.376;7.148;2023-05-13T12:15:35;21.80;1.00
10278;DHT22;5184;51.376;7.148;2023-05-13T12:18:02;21.80;1.00
10278;DHT22;5184;51.376;7.148;2023-05-13T12:20:28;21.90;1.00
10278;DHT22;5184;51.376;7.148;2023-05-13T12:22:55;22.20;1.00
10278;DHT22;5184;51.376;7.148;2023-05-13T12:25:37;22.30;1.00
10278;DHT22;5184;51.376;7.148;2023-05-13T12:28:19;22.30;1.00
10278;DHT22;5184;51.376;7.148;2023-05-13T12:30:50;22.30;1.00
10278;DHT22;5184;51.376;7.148;2023-05-13T12:33:16;22.40;1.00
10278;DHT22;5184;51.376;7.148;2023-05-13T12:35:42;22.50;1.00
10278;DHT22;5184;51.376;7.148;2023-05-13T12:38:12;22.40;1.00
10278;DHT22;5184;51.376;7.148;2023-05-13T12:40:36;22.00;1.00
10278;DHT22;5184;51.376;7.148;2023-05-13T12:43:03;21.90;99.90
10278;DHT22;5184;51.376;7.148;2023-05-13T12:45:31;22.00;99.90
10278;DHT22;5184;51.376;7.148;2023-05-13T12:47:58;22.30;1.00
10278;DHT22;5184;51.376;7.148;2023-05-13T12:50:24;22.30;1.00
10278;DHT22;5184;51.376;7.148;2023-05-13T12:52:52;22.10;99.90
10278;DHT22;5184;51.376;7.148;2023-05-13T12:55:18;22.10;99.90
10278;DHT22;5184;51.376;7.148;2023-05-13T12:57:58;22.20;99.90
10278;DHT22;5184;51.376;7.148;2023-05-13T13:00:22;22.40;99.90
10278;DHT22;5184;51.376;7.148;2023-05-13T13:02:49;22.60;99.90
10278;DHT22;5184;51.376;7.148;2023-05-13T13:05:15;22.70;99.90
10278;DHT22;5184;51.376;7.148;2023-05-13T13:07:43;23.10;99.90
10278;DHT22;5184;51.376;7.148;2023-05-13T13:10:10;23.10;99.90
10278;DHT22;5184;51.376;7.148;2023-05-13T13:12:37;23.10;99.90
10278;DHT22;5184;51.376;7.148;2023-05-13T13:15:06;22.80;99.90
10278;DHT22;5184;51.376;7.148;2023-05-13T13:17:31;22.80;99.90
10278;DHT22;5184;51.376;7.148;2023-05-13T13:19:59;23.20;99.90
10278;DHT22;5184;51.376;7.148;2023-05-13T13:22:27;23.20;99.90
10278;DHT22;5184;51.376;7.148;2023-05-13T13:24:53;23.20;99.90
10278;DHT22;5184;51.376;7.148;2023-05-13T13:27:21;22.90;1.00
10278;DHT22;5184;51.376;7.148;2023-05-13T13:29:47;22.90;1.00
10278;DHT22;5184;51.376;7.148;2023-05-13T13:32:15;22.10;99.90
10278;DHT22;5184;51.376;7.148;2023-05-13T13:34:42;22.00;99.90
10278;DHT22;5184;51.376;7.148;2023-05-13T13:37:09;21.90;99.90
10278;DHT22;5184;51.376;7.148;2023-05-13T13:39:37;21.90;99.90
10278;DHT22;5184;51.376;7.148;2023-05-13T13:42:04;21.80;99.90
10278;DHT22;5184;51.376;7.148;2023-05-13T13:44:31;21.80;99.90
10278;DHT22;5184;51.376;7.148;2023-05-13T13:46:57;22.10;99.90
10278;DHT22;5184;51.376;7.148;2023-05-13T13:49:24;22.30;99.90
10278;DHT22;5184;51.376;7.148;2023-05-13T13:51:51;22.40;99.90
10278;DHT22;5184;51.376;7.148;2023-05-13T13:54:19;22.30;99.90
10278;DHT22;5184;51.376;7.148;2023-05-13T13:56:46;22.20;99.90
10278;DHT22;5184;51.376;7.148;2023-05-13T13:59:13;22.10;99.90
10278;DHT22;5184;51.376;7.148;2023-05-13T14:01:39;22.00;99.90
10278;DHT22;5184;51.376;7.148;2023-05-13T14:04:11;21.90;99.90
10278;DHT22;5184;51.376;7.148;2023-05-13T14:06:37;21.80;99.90
10278;DHT22;5184;51.376;7.148;2023-05-13T14:09:04;22.10;99.90
10278;DHT22;5184;51.376;7.148;2023-05-13T14:11:31;22.50;99.90
10278;DHT22;5184;51.376;7.148;2023-05-13T14:13:58;22.70;99.90
10278;DHT22;5184;51.376;7.148;2023-05-13T14:16:25;22.60;99.90
10278;DHT22;5184;51.376;7.148;2023-05-13T14:18:52;22.50;99.90
10278;DHT22;5184;51.376;7.148;2023-05-13T14:21:18;22.40;99.90
10278;DHT22;5184;51.376;7.148;2023-05-13T14:23:45;22.20;99.90
10278;DHT22;5184;51.376;7.148;2023-05-13T14:26:12;22.60;99.90
10278;DHT22;5184;51.376;7.148;2023-05-13T14:28:40;22.60;99.90
10278;DHT22;5184;51.376;7.148;2023-05-13T14:31:06;23.10;99.90
10278;DHT22;5184;51.376;7.148;2023-05-13T14:33:34;23.50;99.90
10278;DHT22;5184;51.376;7.148;2023-05-13T14:36:01;23.00;99.90
10278;DHT22;5184;51.376;7.148;2023-05-13T14:38:28;22.20;99.90
10278;DHT22;5184;51.376;7.148;2023-05-13T14:40:55;22.20;99.90
10278;DHT22;5184;51.376;7.148;2023-05-13T14:43:23;21.60;99.90
10278;DHT22;5184;51.376;7.148;2023-05-13T14:45:49;21.10;99.90
10278;DHT22;5184;51.376;7.148;2023-05-13T14:48:17;20.70;1.00
10278;DHT22;5184;51.376;7.148;2023-05-13T14:50:43;20.40;1.00
10278;DHT22;5184;51.376;7.148;2023-05-13T14:53:10;19.70;1.00
10278;DHT22;5184;51.376;7.148;2023-05-13T14:55:37;19.50;1.00
10278;DHT22;5184;51.376;7.148;2023-05-13T14:58:04;19.30;1.00
10278;DHT22;5184;51.376;7.148;2023-05-13T15:00:32;19.20;1.00
10278;DHT22;5184;51.376;7.148;2023-05-13T15:02:59;19.10;1.00
10278;DHT22;5184;51.376;7.148;2023-05-13T15:05:26;19.10;1.00
10278;DHT22;5184;51.376;7.148;2023-05-13T15:07:53;19.10;1.00
10278;DHT22;5184;51.376;7.148;2023-05-13T15:10:20;18.70;1.00
10278;DHT22;5184;51.376;7.148;2023-05-13T15:12:47;18.70;1.00
10278;DHT22;5184;51.376;7.148;2023-05-13T15:15:13;18.50;99.90
10278;DHT22;5184;51.376;7.148;2023-05-13T15:17:40;18.40;1.00
10278;DHT22;5184;51.376;7.148;2023-05-13T15:20:07;18.20;75.00
10278;DHT22;5184;51.376;7.148;2023-05-13T15:22:34;18.10;1.00
10278;DHT22;5184;51.376;7.148;2023-05-13T15:25:00;18.10;10.90
10278;DHT22;5184;51.376;7.148;2023-05-13T15:27:27;18.10;25.60
10278;DHT22;5184;51.376;7.148;2023-05-13T15:29:53;18.10;1.00
10278;DHT22;5184;51.376;7.148;2023-05-13T15:32:20;17.90;1.00
10278;DHT22;5184;51.376;7.148;2023-05-13T15:34:47;18.00;1.00
10278;DHT22;5184;51.376;7.148;2023-05-13T15:37:15;18.00;99.90
10278;DHT22;5184;51.376;7.148;2023-05-13T15:39:42;18.00;27.00
10278;DHT22;5184;51.376;7.148;2023-05-13T15:42:09;18.10;99.90
10278;DHT22;5184;51.376;7.148;2023-05-13T15:44:36;18.00;99.90
10278;DHT22;5184;51.376;7.148;2023-05-13T15:47:03;18.20;5.10
10278;DHT22;5184;51.376;7.148;2023-05-13T15:49:29;18.30;1.00
10278;DHT22;5184;51.376;7.148;2023-05-13T15:51:56;18.40;1.00
10278;DHT22;5184;51.376;7.148;2023-05-13T15:54:23;18.80;1.00
10278;DHT22;5184;51.376;7.148;2023-05-13T15:56:49;18.90;1.00
10278;DHT22;5184;51.376;7.148;2023-05-13T15:59:17;19.40;99.90